sensor_id;sensor_type;location;lat;lon;timestamp;P1;durP1;ratioP1;P2;durP2;ratioP2
55879;SDS011;41802;51.564;-1.838;2023-02-05T00:01:41;13.93;;;5.20;;
55879;SDS011;41802;51.564;-1.838;2023-02-05T00:04:09;17.02;;;5.95;;
55879;SDS011;41802;51.564;-1.838;2023-02-05T00:06:38;21.47;;;5.60;;
55879;SDS011;41802;51.564;-1.838;2023-02-05T00:09:05;21.75;;;5.97;;
55879;SDS011;41802;51.564;-1.838;2023-02-05T00:11:33;19.40;;;5.47;;
55879;SDS011;41802;51.564;-1.838;2023-02-05T00:14:01;14.00;;;4.80;;
55879;SDS011;41802;51.564;-1.838;2023-02-05T00:16:29;14.88;;;4.80;;
55879;SDS011;41802;51.564;-1.838;2023-02-05T00:18:58;14.60;;;4.73;;
55879;SDS011;41802;51.564;-1.838;2023-02-05T00:21:26;12.02;;;4.25;;
55879;SDS011;41802;51.564;-1.838;2023-02-05T00:23:59;14.10;;;3.72;;
55879;SDS011;41802;51.564;-1.838;2023-02-05T00:26:26;16.45;;;4.20;;
55879;SDS011;41802;51.564;-1.838;2023-02-05T00:28:54;13.10;;;3.13;;
55879;SDS011;41802;51.564;-1.838;2023-02-05T00:31:22;10.53;;;2.60;;
55879;SDS011;41802;51.564;-1.838;2023-02-05T00:33:50;7.32;;;2.10;;
55879;SDS011;41802;51.564;-1.838;2023-02-05T00:36:19;9.43;;;1.90;;
55879;SDS011;41802;51.564;-1.838;2023-02-05T00:38:46;8.00;;;1.92;;
55879;SDS011;41802;51.564;-1.838;2023-02-05T00:41:17;6.60;;;1.67;;
55879;SDS011;41802;51.564;-1.838;2023-02-05T00:43:45;9.47;;;1.73;;
55879;SDS011;41802;51.564;-1.838;2023-02-05T00:46:12;8.32;;;1.50;;
55879;SDS011;41802;51.564;-1.838;2023-02-05T00:48:41;9.82;;;1.65;;
55879;SDS011;41802;51.564;-1.838;2023-02-05T00:51:09;8.32;;;1.50;;
55879;SDS011;41802;51.564;-1.838;2023-02-05T00:53:40;8.98;;;1.75;;
55879;SDS011;41802;51.564;-1.838;2023-02-05T00:56:08;8.43;;;1.53;;
55879;SDS011;41802;51.564;-1.838;2023-02-05T00:58:37;12.00;;;1.92;;
55879;SDS011;41802;51.564;-1.838;2023-02-05T01:01:05;8.45;;;1.85;;
55879;SDS011;41802;51.564;-1.838;2023-02-05T01:03:33;10.70;;;1.63;;
55879;SDS011;41802;51.564;-1.838;2023-02-05T01:06:01;8.48;;;1.77;;
55879;SDS011;41802;51.564;-1.838;2023-02-05T01:08:30;9.83;;;1.90;;
55879;SDS011;41802;51.564;-1.838;2023-02-05T01:10:59;7.22;;;1.98;;
55879;SDS011;41802;51.564;-1.838;2023-02-05T01:13:29;8.45;;;1.30;;
55879;SDS011;41802;51.564;-1.838;2023-02-05T01:16:00;6.47;;;1.30;;
55879;SDS011;41802;51.564;-1.838;2023-02-05T01:18:28;11.23;;;1.27;;
55879;SDS011;41802;51.564;-1.838;2023-02-05T01:20:56;9.80;;;1.73;;
55879;SDS011;41802;51.564;-1.838;2023-02-05T01:23:24;9.45;;;1.60;;
55879;SDS011;41802;51.564;-1.838;2023-02-05T01:25:52;9.00;;;1.20;;
55879;SDS011;41802;51.564;-1.838;2023-02-05T01:28:20;9.50;;;1.55;;
55879;SDS011;41802;51.564;-1.838;2023-02-05T01:30:48;10.77;;;1.45;;
55879;SDS011;41802;51.564;-1.838;2023-02-05T01:33:17;7.47;;;1.07;;
55879;SDS011;41802;51.564;-1.838;2023-02-05T01:35:45;5.75;;;0.93;;
55879;SDS011;41802;51.564;-1.838;2023-02-05T01:38:13;7.63;;;0.70;;
55879;SDS011;41802;51.564;-1.838;2023-02-05T01:40:40;13.27;;;0.85;;
55879;SDS011;41802;51.564;-1.838;2023-02-05T01:43:10;10.05;;;0.70;;
55879;SDS011;41802;51.564;-1.838;2023-02-05T01:48:35;11.05;;;0.95;;
55879;SDS011;41802;51.564;-1.838;2023-02-05T01:51:05;10.75;;;1.15;;
55879;SDS011;41802;51.564;-1.838;2023-02-05T01:53:34;9.95;;;0.70;;
55879;SDS011;41802;51.564;-1.838;2023-02-05T01:56:03;7.20;;;0.68;;
55879;SDS011;41802;51.564;-1.838;2023-02-05T01:58:33;13.23;;;0.90;;
55879;SDS011;41802;51.564;-1.838;2023-02-05T02:01:02;13.82;;;1.02;;
55879;SDS011;41802;51.564;-1.838;2023-02-05T02:03:30;13.23;;;0.70;;
55879;SDS011;41802;51.564;-1.838;2023-02-05T02:05:59;8.88;;;0.73;;
55879;SDS011;41802;51.564;-1.838;2023-02-05T02:08:28;12.10;;;1.20;;
55879;SDS011;41802;51.564;-1.838;2023-02-05T02:10:58;9.13;;;0.60;;
55879;SDS011;41802;51.564;-1.838;2023-02-05T02:13:27;10.75;;;0.98;;
55879;SDS011;41802;51.564;-1.838;2023-02-05T02:15:57;12.55;;;1.80;;
55879;SDS011;41802;51.564;-1.838;2023-02-05T02:18:25;16.38;;;1.30;;
55879;SDS011;41802;51.564;-1.838;2023-02-05T02:20:59;11.10;;;1.08;;
55879;SDS011;41802;51.564;-1.838;2023-02-05T02:23:32;21.10;;;2.37;;
55879;SDS011;41802;51.564;-1.838;2023-02-05T02:29:00;15.48;;;1.48;;
55879;SDS011;41802;51.564;-1.838;2023-02-05T02:31:30;11.32;;;1.20;;
55879;SDS011;41802;51.564;-1.838;2023-02-05T02:34:00;8.50;;;0.70;;
55879;SDS011;41802;51.564;-1.838;2023-02-05T02:36:29;10.10;;;1.10;;
55879;SDS011;41802;51.564;-1.838;2023-02-05T02:39:05;16.73;;;1.23;;
55879;SDS011;41802;51.564;-1.838;2023-02-05T02:41:35;14.73;;;1.17;;
55879;SDS011;41802;51.564;-1.838;2023-02-05T02:44:06;16.05;;;1.48;;
55879;SDS011;41802;51.564;-1.838;2023-02-05T02:46:47;11.30;;;1.40;;
55879;SDS011;41802;51.564;-1.838;2023-02-05T02:49:22;13.43;;;1.20;;
55879;SDS011;41802;51.564;-1.838;2023-02-05T02:51:51;11.38;;;0.80;;
55879;SDS011;41802;51.564;-1.838;2023-02-05T02:54:20;11.82;;;0.82;;
55879;SDS011;41802;51.564;-1.838;2023-02-05T02:56:48;9.32;;;0.88;;
55879;SDS011;41802;51.564;-1.838;2023-02-05T02:59:19;13.98;;;0.93;;
55879;SDS011;41802;51.564;-1.838;2023-02-05T03:01:48;12.43;;;1.10;;
55879;SDS011;41802;51.564;-1.838;2023-02-05T03:04:21;8.80;;;0.80;;
55879;SDS011;41802;51.564;-1.838;2023-02-05T03:06:50;7.20;;;0.85;;
55879;SDS011;41802;51.564;-1.838;2023-02-05T03:09:21;13.50;;;0.80;;
55879;SDS011;41802;51.564;-1.838;2023-02-05T03:11:51;18.67;;;1.88;;
55879;SDS011;41802;51.564;-1.838;2023-02-05T03:14:20;20.40;;;2.07;;
55879;SDS011;41802;51.564;-1.838;2023-02-05T03:16:48;11.32;;;1.17;;
55879;SDS011;41802;51.564;-1.838;2023-02-05T03:19:16;12.70;;;1.02;;
55879;SDS011;41802;51.564;-1.838;2023-02-05T03:21:45;12.65;;;0.98;;
55879;SDS011;41802;51.564;-1.838;2023-02-05T03:24:13;14.40;;;1.30;;
55879;SDS011;41802;51.564;-1.838;2023-02-05T03:26:41;12.53;;;1.77;;
55879;SDS011;41802;51.564;-1.838;2023-02-05T03:29:09;13.02;;;1.08;;
55879;SDS011;41802;51.564;-1.838;2023-02-05T03:31:44;14.98;;;1.55;;
55879;SDS011;41802;51.564;-1.838;2023-02-05T03:34:16;12.55;;;1.00;;
55879;SDS011;41802;51.564;-1.838;2023-02-05T03:36:51;8.43;;;1.00;;
55879;SDS011;41802;51.564;-1.838;2023-02-05T03:39:23;12.20;;;1.10;;
55879;SDS011;41802;51.564;-1.838;2023-02-05T03:42:03;15.25;;;1.10;;
55879;SDS011;41802;51.564;-1.838;2023-02-05T03:44:38;20.15;;;1.98;;
55879;SDS011;41802;51.564;-1.838;2023-02-05T03:47:15;13.45;;;1.30;;
55879;SDS011;41802;51.564;-1.838;2023-02-05T03:49:46;13.05;;;0.77;;
55879;SDS011;41802;51.564;-1.838;2023-02-05T03:52:19;13.97;;;1.20;;
55879;SDS011;41802;51.564;-1.838;2023-02-05T03:54:49;15.27;;;1.88;;
55879;SDS011;41802;51.564;-1.838;2023-02-05T03:57:19;10.68;;;1.00;;
55879;SDS011;41802;51.564;-1.838;2023-02-05T03:59:49;9.10;;;1.00;;
55879;SDS011;41802;51.564;-1.838;2023-02-05T04:02:18;15.50;;;1.40;;
55879;SDS011;41802;51.564;-1.838;2023-02-05T04:04:47;14.97;;;1.20;;
55879;SDS011;41802;51.564;-1.838;2023-02-05T04:07:15;12.43;;;0.60;;
55879;SDS011;41802;51.564;-1.838;2023-02-05T04:09:42;21.35;;;1.35;;
55879;SDS011;41802;51.564;-1.838;2023-02-05T04:12:10;9.02;;;0.95;;
55879;SDS011;41802;51.564;-1.838;2023-02-05T04:14:38;16.55;;;1.20;;
55879;SDS011;41802;51.564;-1.838;2023-02-05T04:17:06;12.63;;;1.10;;
55879;SDS011;41802;51.564;-1.838;2023-02-05T04:19:35;11.52;;;1.20;;
55879;SDS011;41802;51.564;-1.838;2023-02-05T04:22:03;7.88;;;0.90;;
55879;SDS011;41802;51.564;-1.838;2023-02-05T04:24:30;19.23;;;1.80;;
55879;SDS011;41802;51.564;-1.838;2023-02-05T04:26:58;11.18;;;1.60;;
55879;SDS011;41802;51.564;-1.838;2023-02-05T04:29:26;16.37;;;1.43;;
55879;SDS011;41802;51.564;-1.838;2023-02-05T04:31:54;14.48;;;1.10;;
55879;SDS011;41802;51.564;-1.838;2023-02-05T04:34:21;18.30;;;0.80;;
55879;SDS011;41802;51.564;-1.838;2023-02-05T04:36:50;11.73;;;0.80;;
55879;SDS011;41802;51.564;-1.838;2023-02-05T04:39:18;9.82;;;1.33;;
55879;SDS011;41802;51.564;-1.838;2023-02-05T04:41:46;13.40;;;0.90;;
55879;SDS011;41802;51.564;-1.838;2023-02-05T04:44:13;14.80;;;1.05;;
55879;SDS011;41802;51.564;-1.838;2023-02-05T04:46:41;15.77;;;0.93;;
55879;SDS011;41802;51.564;-1.838;2023-02-05T04:49:09;11.45;;;0.88;;
55879;SDS011;41802;51.564;-1.838;2023-02-05T04:51:37;15.98;;;1.05;;
55879;SDS011;41802;51.564;-1.838;2023-02-05T04:54:10;11.90;;;0.83;;
55879;SDS011;41802;51.564;-1.838;2023-02-05T04:56:39;12.45;;;0.80;;
55879;SDS011;41802;51.564;-1.838;2023-02-05T04:59:06;15.88;;;1.17;;
55879;SDS011;41802;51.564;-1.838;2023-02-05T05:01:34;10.27;;;1.00;;
55879;SDS011;41802;51.564;-1.838;2023-02-05T05:04:01;17.13;;;2.25;;
55879;SDS011;41802;51.564;-1.838;2023-02-05T05:06:29;11.97;;;1.07;;
55879;SDS011;41802;51.564;-1.838;2023-02-05T05:09:01;15.75;;;1.20;;
55879;SDS011;41802;51.564;-1.838;2023-02-05T05:11:31;17.38;;;1.17;;
55879;SDS011;41802;51.564;-1.838;2023-02-05T05:13:58;11.07;;;1.00;;
55879;SDS011;41802;51.564;-1.838;2023-02-05T05:16:26;19.15;;;1.27;;
55879;SDS011;41802;51.564;-1.838;2023-02-05T05:18:54;12.17;;;1.37;;
55879;SDS011;41802;51.564;-1.838;2023-02-05T05:21:21;14.77;;;1.27;;
55879;SDS011;41802;51.564;-1.838;2023-02-05T05:23:49;11.80;;;1.13;;
55879;SDS011;41802;51.564;-1.838;2023-02-05T05:26:17;14.82;;;0.95;;
55879;SDS011;41802;51.564;-1.838;2023-02-05T05:28:46;15.00;;;1.42;;
55879;SDS011;41802;51.564;-1.838;2023-02-05T05:31:14;18.17;;;1.80;;
55879;SDS011;41802;51.564;-1.838;2023-02-05T05:33:45;14.77;;;1.73;;
55879;SDS011;41802;51.564;-1.838;2023-02-05T05:36:13;12.45;;;0.77;;
55879;SDS011;41802;51.564;-1.838;2023-02-05T05:38:46;10.07;;;0.93;;
55879;SDS011;41802;51.564;-1.838;2023-02-05T05:41:16;13.43;;;0.88;;
55879;SDS011;41802;51.564;-1.838;2023-02-05T05:44:03;11.13;;;1.13;;
55879;SDS011;41802;51.564;-1.838;2023-02-05T05:46:31;16.20;;;1.10;;
55879;SDS011;41802;51.564;-1.838;2023-02-05T05:48:59;15.55;;;1.05;;
55879;SDS011;41802;51.564;-1.838;2023-02-05T05:51:27;11.00;;;0.90;;
55879;SDS011;41802;51.564;-1.838;2023-02-05T05:53:55;11.18;;;1.30;;
55879;SDS011;41802;51.564;-1.838;2023-02-05T05:56:23;14.23;;;1.37;;
55879;SDS011;41802;51.564;-1.838;2023-02-05T05:58:51;15.55;;;0.95;;
55879;SDS011;41802;51.564;-1.838;2023-02-05T06:01:22;15.57;;;0.90;;
55879;SDS011;41802;51.564;-1.838;2023-02-05T06:03:49;12.77;;;0.93;;
55879;SDS011;41802;51.564;-1.838;2023-02-05T06:06:18;23.70;;;1.33;;
55879;SDS011;41802;51.564;-1.838;2023-02-05T06:08:45;14.17;;;1.57;;
55879;SDS011;41802;51.564;-1.838;2023-02-05T06:11:13;16.30;;;1.42;;
55879;SDS011;41802;51.564;-1.838;2023-02-05T06:13:42;10.77;;;1.40;;
55879;SDS011;41802;51.564;-1.838;2023-02-05T06:16:10;19.40;;;1.00;;
55879;SDS011;41802;51.564;-1.838;2023-02-05T06:18:42;19.23;;;1.40;;
55879;SDS011;41802;51.564;-1.838;2023-02-05T06:21:10;11.37;;;1.00;;
55879;SDS011;41802;51.564;-1.838;2023-02-05T06:23:37;14.20;;;0.85;;
55879;SDS011;41802;51.564;-1.838;2023-02-05T06:26:05;14.70;;;1.00;;
55879;SDS011;41802;51.564;-1.838;2023-02-05T06:28:33;12.93;;;1.42;;
55879;SDS011;41802;51.564;-1.838;2023-02-05T06:31:00;10.85;;;0.95;;
55879;SDS011;41802;51.564;-1.838;2023-02-05T06:33:28;11.07;;;0.97;;
55879;SDS011;41802;51.564;-1.838;2023-02-05T06:35:57;6.18;;;0.60;;
55879;SDS011;41802;51.564;-1.838;2023-02-05T06:38:25;12.05;;;0.95;;
55879;SDS011;41802;51.564;-1.838;2023-02-05T06:40:53;14.95;;;1.10;;
55879;SDS011;41802;51.564;-1.838;2023-02-05T06:43:20;11.80;;;0.80;;
55879;SDS011;41802;51.564;-1.838;2023-02-05T06:45:48;12.70;;;1.10;;
55879;SDS011;41802;51.564;-1.838;2023-02-05T06:48:15;12.13;;;1.05;;
55879;SDS011;41802;51.564;-1.838;2023-02-05T06:50:44;15.40;;;0.75;;
55879;SDS011;41802;51.564;-1.838;2023-02-05T06:53:13;19.17;;;1.10;;
55879;SDS011;41802;51.564;-1.838;2023-02-05T06:55:41;12.07;;;0.90;;
55879;SDS011;41802;51.564;-1.838;2023-02-05T06:58:08;18.93;;;2.07;;
55879;SDS011;41802;51.564;-1.838;2023-02-05T07:00:36;15.48;;;0.90;;
55879;SDS011;41802;51.564;-1.838;2023-02-05T07:03:04;13.13;;;1.02;;
55879;SDS011;41802;51.564;-1.838;2023-02-05T07:05:32;17.63;;;1.40;;
55879;SDS011;41802;51.564;-1.838;2023-02-05T07:08:00;10.38;;;1.00;;
55879;SDS011;41802;51.564;-1.838;2023-02-05T07:10:30;12.77;;;1.10;;
55879;SDS011;41802;51.564;-1.838;2023-02-05T07:12:58;13.98;;;1.17;;
55879;SDS011;41802;51.564;-1.838;2023-02-05T07:15:26;11.90;;;1.20;;
55879;SDS011;41802;51.564;-1.838;2023-02-05T07:17:53;11.98;;;1.15;;
55879;SDS011;41802;51.564;-1.838;2023-02-05T07:20:21;13.55;;;1.40;;
55879;SDS011;41802;51.564;-1.838;2023-02-05T07:22:49;14.60;;;1.30;;
55879;SDS011;41802;51.564;-1.838;2023-02-05T07:25:17;11.88;;;1.42;;
55879;SDS011;41802;51.564;-1.838;2023-02-05T07:27:46;12.10;;;0.88;;
55879;SDS011;41802;51.564;-1.838;2023-02-05T07:30:14;15.07;;;1.05;;
55879;SDS011;41802;51.564;-1.838;2023-02-05T07:32:59;12.70;;;1.40;;
55879;SDS011;41802;51.564;-1.838;2023-02-05T07:35:30;13.17;;;1.50;;
55879;SDS011;41802;51.564;-1.838;2023-02-05T07:37:58;8.32;;;1.13;;
55879;SDS011;41802;51.564;-1.838;2023-02-05T07:40:25;10.10;;;0.90;;
55879;SDS011;41802;51.564;-1.838;2023-02-05T07:42:55;14.30;;;1.30;;
55879;SDS011;41802;51.564;-1.838;2023-02-05T07:45:22;15.88;;;1.42;;
55879;SDS011;41802;51.564;-1.838;2023-02-05T07:47:50;17.77;;;1.20;;
55879;SDS011;41802;51.564;-1.838;2023-02-05T07:50:19;8.40;;;0.90;;
55879;SDS011;41802;51.564;-1.838;2023-02-05T07:52:47;11.02;;;1.15;;
55879;SDS011;41802;51.564;-1.838;2023-02-05T07:55:15;16.92;;;1.20;;
55879;SDS011;41802;51.564;-1.838;2023-02-05T07:57:43;12.43;;;1.02;;
55879;SDS011;41802;51.564;-1.838;2023-02-05T08:00:13;12.07;;;1.30;;
55879;SDS011;41802;51.564;-1.838;2023-02-05T08:02:41;11.55;;;1.45;;
55879;SDS011;41802;51.564;-1.838;2023-02-05T08:05:09;16.42;;;1.42;;
55879;SDS011;41802;51.564;-1.838;2023-02-05T08:07:37;10.32;;;1.20;;
55879;SDS011;41802;51.564;-1.838;2023-02-05T08:10:05;10.73;;;1.10;;
55879;SDS011;41802;51.564;-1.838;2023-02-05T08:12:32;6.70;;;0.70;;
55879;SDS011;41802;51.564;-1.838;2023-02-05T08:15:00;12.10;;;0.80;;
55879;SDS011;41802;51.564;-1.838;2023-02-05T08:17:29;12.25;;;0.80;;
55879;SDS011;41802;51.564;-1.838;2023-02-05T08:19:57;10.68;;;0.45;;
55879;SDS011;41802;51.564;-1.838;2023-02-05T08:22:39;10.05;;;0.75;;
55879;SDS011;41802;51.564;-1.838;2023-02-05T08:25:08;15.83;;;1.17;;
55879;SDS011;41802;51.564;-1.838;2023-02-05T08:27:37;19.83;;;1.17;;
55879;SDS011;41802;51.564;-1.838;2023-02-05T08:30:08;11.77;;;0.90;;
55879;SDS011;41802;51.564;-1.838;2023-02-05T08:32:38;9.32;;;0.85;;
55879;SDS011;41802;51.564;-1.838;2023-02-05T08:35:05;15.20;;;1.27;;
55879;SDS011;41802;51.564;-1.838;2023-02-05T08:37:33;10.27;;;0.90;;
55879;SDS011;41802;51.564;-1.838;2023-02-05T08:40:01;12.75;;;0.80;;
55879;SDS011;41802;51.564;-1.838;2023-02-05T08:42:28;12.93;;;1.38;;
55879;SDS011;41802;51.564;-1.838;2023-02-05T08:44:56;6.15;;;1.08;;
55879;SDS011;41802;51.564;-1.838;2023-02-05T08:47:25;17.40;;;1.83;;
55879;SDS011;41802;51.564;-1.838;2023-02-05T08:49:54;16.33;;;1.20;;
55879;SDS011;41802;51.564;-1.838;2023-02-05T08:52:21;11.10;;;1.42;;
55879;SDS011;41802;51.564;-1.838;2023-02-05T08:54:54;14.43;;;0.60;;
55879;SDS011;41802;51.564;-1.838;2023-02-05T08:57:25;11.80;;;1.00;;
55879;SDS011;41802;51.564;-1.838;2023-02-05T08:59:53;14.07;;;1.10;;
55879;SDS011;41802;51.564;-1.838;2023-02-05T09:02:21;14.13;;;1.30;;
55879;SDS011;41802;51.564;-1.838;2023-02-05T09:04:49;15.15;;;0.80;;
55879;SDS011;41802;51.564;-1.838;2023-02-05T09:07:34;11.63;;;0.77;;
55879;SDS011;41802;51.564;-1.838;2023-02-05T09:10:02;14.63;;;1.10;;
55879;SDS011;41802;51.564;-1.838;2023-02-05T09:12:29;9.30;;;0.70;;
55879;SDS011;41802;51.564;-1.838;2023-02-05T09:14:57;9.70;;;0.83;;
55879;SDS011;41802;51.564;-1.838;2023-02-05T09:17:24;9.60;;;0.95;;
55879;SDS011;41802;51.564;-1.838;2023-02-05T09:19:52;10.38;;;1.15;;
55879;SDS011;41802;51.564;-1.838;2023-02-05T09:22:20;9.38;;;0.60;;
55879;SDS011;41802;51.564;-1.838;2023-02-05T09:24:49;8.05;;;0.80;;
55879;SDS011;41802;51.564;-1.838;2023-02-05T09:27:17;10.70;;;0.80;;
55879;SDS011;41802;51.564;-1.838;2023-02-05T09:29:45;12.73;;;1.00;;
55879;SDS011;41802;51.564;-1.838;2023-02-05T09:32:12;13.23;;;0.80;;
55879;SDS011;41802;51.564;-1.838;2023-02-05T09:34:46;8.57;;;1.00;;
55879;SDS011;41802;51.564;-1.838;2023-02-05T09:37:16;7.03;;;0.95;;
55879;SDS011;41802;51.564;-1.838;2023-02-05T09:39:43;8.87;;;0.80;;
55879;SDS011;41802;51.564;-1.838;2023-02-05T09:42:34;12.18;;;1.00;;
55879;SDS011;41802;51.564;-1.838;2023-02-05T09:45:06;10.55;;;1.00;;
55879;SDS011;41802;51.564;-1.838;2023-02-05T09:47:39;17.75;;;1.70;;
55879;SDS011;41802;51.564;-1.838;2023-02-05T09:50:11;11.55;;;0.73;;
55879;SDS011;41802;51.564;-1.838;2023-02-05T09:52:41;11.77;;;1.20;;
55879;SDS011;41802;51.564;-1.838;2023-02-05T09:55:13;13.55;;;2.08;;
55879;SDS011;41802;51.564;-1.838;2023-02-05T09:57:46;12.07;;;1.20;;
55879;SDS011;41802;51.564;-1.838;2023-02-05T10:00:16;11.40;;;0.95;;
55879;SDS011;41802;51.564;-1.838;2023-02-05T10:02:46;9.13;;;0.68;;
55879;SDS011;41802;51.564;-1.838;2023-02-05T10:05:16;12.27;;;1.23;;
55879;SDS011;41802;51.564;-1.838;2023-02-05T10:07:46;8.70;;;1.10;;
55879;SDS011;41802;51.564;-1.838;2023-02-05T10:10:22;12.32;;;0.93;;
55879;SDS011;41802;51.564;-1.838;2023-02-05T10:15:47;10.98;;;0.75;;
55879;SDS011;41802;51.564;-1.838;2023-02-05T10:18:21;7.97;;;1.10;;
55879;SDS011;41802;51.564;-1.838;2023-02-05T10:20:55;8.20;;;0.68;;
55879;SDS011;41802;51.564;-1.838;2023-02-05T10:23:31;6.82;;;0.60;;
55879;SDS011;41802;51.564;-1.838;2023-02-05T10:26:03;12.40;;;1.13;;
55879;SDS011;41802;51.564;-1.838;2023-02-05T10:31:26;10.17;;;1.20;;
55879;SDS011;41802;51.564;-1.838;2023-02-05T10:33:58;8.38;;;0.88;;
55879;SDS011;41802;51.564;-1.838;2023-02-05T10:36:29;11.30;;;1.00;;
55879;SDS011;41802;51.564;-1.838;2023-02-05T10:38:57;13.50;;;0.98;;
55879;SDS011;41802;51.564;-1.838;2023-02-05T10:41:27;7.53;;;1.10;;
55879;SDS011;41802;51.564;-1.838;2023-02-05T10:43:59;12.67;;;1.30;;
55879;SDS011;41802;51.564;-1.838;2023-02-05T10:46:31;11.10;;;0.90;;
55879;SDS011;41802;51.564;-1.838;2023-02-05T10:49:00;9.38;;;0.70;;
55879;SDS011;41802;51.564;-1.838;2023-02-05T10:51:31;7.47;;;0.80;;
55879;SDS011;41802;51.564;-1.838;2023-02-05T10:54:01;7.00;;;1.05;;
55879;SDS011;41802;51.564;-1.838;2023-02-05T10:56:30;15.40;;;1.27;;
55879;SDS011;41802;51.564;-1.838;2023-02-05T10:58:59;9.30;;;1.05;;
55879;SDS011;41802;51.564;-1.838;2023-02-05T11:01:29;14.02;;;1.80;;
55879;SDS011;41802;51.564;-1.838;2023-02-05T11:03:59;7.03;;;0.50;;
55879;SDS011;41802;51.564;-1.838;2023-02-05T11:06:28;10.48;;;0.77;;
55879;SDS011;41802;51.564;-1.838;2023-02-05T11:09:02;9.00;;;1.00;;
55879;SDS011;41802;51.564;-1.838;2023-02-05T11:11:30;11.27;;;0.75;;
55879;SDS011;41802;51.564;-1.838;2023-02-05T11:13:58;11.82;;;0.98;;
55879;SDS011;41802;51.564;-1.838;2023-02-05T11:16:33;18.30;;;0.93;;
55879;SDS011;41802;51.564;-1.838;2023-02-05T11:19:03;10.52;;;0.98;;
55879;SDS011;41802;51.564;-1.838;2023-02-05T11:21:49;7.83;;;1.03;;
55879;SDS011;41802;51.564;-1.838;2023-02-05T11:24:26;5.75;;;1.10;;
55879;SDS011;41802;51.564;-1.838;2023-02-05T11:27:11;9.15;;;0.50;;
55879;SDS011;41802;51.564;-1.838;2023-02-05T11:29:42;4.93;;;0.38;;
55879;SDS011;41802;51.564;-1.838;2023-02-05T11:32:17;9.65;;;0.85;;
55879;SDS011;41802;51.564;-1.838;2023-02-05T11:34:46;8.27;;;0.50;;
55879;SDS011;41802;51.564;-1.838;2023-02-05T11:37:15;7.45;;;1.05;;
55879;SDS011;41802;51.564;-1.838;2023-02-05T11:39:43;5.85;;;0.55;;
55879;SDS011;41802;51.564;-1.838;2023-02-05T11:42:16;11.90;;;0.82;;
55879;SDS011;41802;51.564;-1.838;2023-02-05T11:44:46;11.35;;;0.73;;
55879;SDS011;41802;51.564;-1.838;2023-02-05T11:47:18;9.53;;;0.70;;
55879;SDS011;41802;51.564;-1.838;2023-02-05T11:49:48;7.40;;;0.68;;
55879;SDS011;41802;51.564;-1.838;2023-02-05T11:52:17;5.75;;;0.65;;
55879;SDS011;41802;51.564;-1.838;2023-02-05T11:54:51;8.55;;;0.80;;
55879;SDS011;41802;51.564;-1.838;2023-02-05T11:57:26;12.55;;;0.93;;
55879;SDS011;41802;51.564;-1.838;2023-02-05T12:00:00;12.53;;;1.13;;
55879;SDS011;41802;51.564;-1.838;2023-02-05T12:05:22;8.80;;;0.65;;
55879;SDS011;41802;51.564;-1.838;2023-02-05T12:07:54;7.75;;;0.55;;
55879;SDS011;41802;51.564;-1.838;2023-02-05T12:10:23;9.63;;;0.73;;
55879;SDS011;41802;51.564;-1.838;2023-02-05T12:12:58;8.47;;;0.70;;
55879;SDS011;41802;51.564;-1.838;2023-02-05T12:15:28;5.78;;;0.60;;
55879;SDS011;41802;51.564;-1.838;2023-02-05T12:18:02;9.45;;;0.82;;
55879;SDS011;41802;51.564;-1.838;2023-02-05T12:20:36;7.28;;;0.50;;
55879;SDS011;41802;51.564;-1.838;2023-02-05T12:26:04;13.03;;;0.63;;
55879;SDS011;41802;51.564;-1.838;2023-02-05T12:28:35;7.05;;;0.60;;
55879;SDS011;41802;51.564;-1.838;2023-02-05T12:31:10;10.38;;;0.85;;
55879;SDS011;41802;51.564;-1.838;2023-02-05T12:33:47;10.10;;;0.60;;
55879;SDS011;41802;51.564;-1.838;2023-02-05T12:36:27;7.95;;;0.90;;
55879;SDS011;41802;51.564;-1.838;2023-02-05T12:39:00;4.73;;;0.67;;
55879;SDS011;41802;51.564;-1.838;2023-02-05T12:41:32;8.15;;;0.88;;
55879;SDS011;41802;51.564;-1.838;2023-02-05T12:44:06;11.05;;;1.25;;
55879;SDS011;41802;51.564;-1.838;2023-02-05T12:46:48;7.45;;;0.57;;
55879;SDS011;41802;51.564;-1.838;2023-02-05T12:49:23;7.30;;;0.65;;
55879;SDS011;41802;51.564;-1.838;2023-02-05T12:52:12;7.30;;;0.67;;
55879;SDS011;41802;51.564;-1.838;2023-02-05T12:54:44;9.02;;;0.80;;
55879;SDS011;41802;51.564;-1.838;2023-02-05T12:57:20;9.70;;;0.68;;
55879;SDS011;41802;51.564;-1.838;2023-02-05T12:59:50;12.27;;;0.70;;
55879;SDS011;41802;51.564;-1.838;2023-02-05T13:02:22;9.00;;;0.90;;
55879;SDS011;41802;51.564;-1.838;2023-02-05T13:04:51;10.33;;;0.87;;
55879;SDS011;41802;51.564;-1.838;2023-02-05T13:07:29;7.80;;;0.80;;
55879;SDS011;41802;51.564;-1.838;2023-02-05T13:09:59;6.57;;;0.65;;
55879;SDS011;41802;51.564;-1.838;2023-02-05T13:12:30;10.02;;;1.20;;
55879;SDS011;41802;51.564;-1.838;2023-02-05T13:15:01;8.90;;;0.70;;
55879;SDS011;41802;51.564;-1.838;2023-02-05T13:17:33;7.83;;;0.60;;
55879;SDS011;41802;51.564;-1.838;2023-02-05T13:20:02;6.18;;;0.35;;
55879;SDS011;41802;51.564;-1.838;2023-02-05T13:22:34;6.38;;;0.95;;
55879;SDS011;41802;51.564;-1.838;2023-02-05T13:25:23;11.15;;;0.75;;
55879;SDS011;41802;51.564;-1.838;2023-02-05T13:28:19;6.20;;;0.50;;
55879;SDS011;41802;51.564;-1.838;2023-02-05T13:31:18;8.17;;;0.63;;
55879;SDS011;41802;51.564;-1.838;2023-02-05T13:33:47;8.05;;;0.90;;
55879;SDS011;41802;51.564;-1.838;2023-02-05T13:36:25;8.68;;;0.63;;
55879;SDS011;41802;51.564;-1.838;2023-02-05T13:39:04;9.98;;;0.70;;
55879;SDS011;41802;51.564;-1.838;2023-02-05T13:41:48;11.80;;;0.70;;
55879;SDS011;41802;51.564;-1.838;2023-02-05T13:47:26;11.95;;;0.70;;
55879;SDS011;41802;51.564;-1.838;2023-02-05T13:53:10;9.13;;;1.15;;
55879;SDS011;41802;51.564;-1.838;2023-02-05T13:55:46;10.32;;;1.23;;
55879;SDS011;41802;51.564;-1.838;2023-02-05T13:58:20;4.77;;;0.60;;
55879;SDS011;41802;51.564;-1.838;2023-02-05T14:00:59;7.10;;;0.50;;
55879;SDS011;41802;51.564;-1.838;2023-02-05T14:03:34;9.93;;;0.93;;
55879;SDS011;41802;51.564;-1.838;2023-02-05T14:06:14;6.35;;;0.57;;
55879;SDS011;41802;51.564;-1.838;2023-02-05T14:08:42;13.55;;;1.42;;
55879;SDS011;41802;51.564;-1.838;2023-02-05T14:11:12;6.70;;;0.60;;
55879;SDS011;41802;51.564;-1.838;2023-02-05T14:13:39;6.00;;;0.82;;
55879;SDS011;41802;51.564;-1.838;2023-02-05T14:19:12;8.93;;;0.52;;
55879;SDS011;41802;51.564;-1.838;2023-02-05T14:21:55;6.93;;;1.00;;
55879;SDS011;41802;51.564;-1.838;2023-02-05T14:24:25;6.73;;;0.50;;
55879;SDS011;41802;51.564;-1.838;2023-02-05T14:26:54;7.13;;;0.68;;
55879;SDS011;41802;51.564;-1.838;2023-02-05T14:29:39;8.65;;;0.50;;
55879;SDS011;41802;51.564;-1.838;2023-02-05T14:32:08;8.77;;;0.73;;
55879;SDS011;41802;51.564;-1.838;2023-02-05T14:34:45;10.02;;;1.00;;
55879;SDS011;41802;51.564;-1.838;2023-02-05T14:37:23;15.97;;;0.97;;
55879;SDS011;41802;51.564;-1.838;2023-02-05T14:39:52;5.47;;;0.75;;
55879;SDS011;41802;51.564;-1.838;2023-02-05T14:42:21;12.20;;;0.93;;
55879;SDS011;41802;51.564;-1.838;2023-02-05T14:44:51;10.65;;;0.75;;
55879;SDS011;41802;51.564;-1.838;2023-02-05T14:47:23;6.38;;;0.52;;
55879;SDS011;41802;51.564;-1.838;2023-02-05T14:49:57;8.80;;;1.03;;
55879;SDS011;41802;51.564;-1.838;2023-02-05T14:52:31;6.85;;;0.50;;
55879;SDS011;41802;51.564;-1.838;2023-02-05T14:55:00;7.82;;;1.27;;
55879;SDS011;41802;51.564;-1.838;2023-02-05T14:57:35;10.20;;;0.75;;
55879;SDS011;41802;51.564;-1.838;2023-02-05T15:00:06;8.55;;;1.10;;
55879;SDS011;41802;51.564;-1.838;2023-02-05T15:05:39;8.65;;;1.08;;
55879;SDS011;41802;51.564;-1.838;2023-02-05T15:08:09;8.90;;;0.85;;
55879;SDS011;41802;51.564;-1.838;2023-02-05T15:10:44;9.30;;;0.95;;
55879;SDS011;41802;51.564;-1.838;2023-02-05T15:13:19;9.20;;;0.63;;
55879;SDS011;41802;51.564;-1.838;2023-02-05T15:18:49;8.00;;;0.82;;